Terminal Aerodrome Forecast
Issued by NWS Flagstaff, AZ

Home | Current Version | Previous Version | Text Only | Print | Product List | Glossary On
Versions: 1 2 3 4 5 6 7 8 9 10 11 12 13 14
112
FTUS45 KFGZ 080537
TAFFLG
TAF
KFLG 080537Z 0806/0906 VRB03KT P6SM FEW250
     FM081800 20008KT P6SM FEW100 SCT250
     FM090100 VRB03KT P6SM SCT250=

USA.gov is the U.S. government's official web portal to all federal, state and local government web resources and services.